Time;durP1;ratioP1;P1;durP2;ratioP2;P2;SDS_P1;SDS_P2;PMS_P1;PMS_P2;Temp;Humidity;BMP_temperature;BMP_pressure;BME280_temperature;BME280_humidity;BME280_pressure;Samples;Min_cycle;Max_cycle;Signal;HPM_P1;HPM_P2
2021/11/17 02:54:38;;;;;;;3.55;1.67;;;1.90;99.90;;;;;;5105014;27;20533;-67
2021/11/17 02:57:23;;;;;;;3.28;2.08;;;2.00;99.90;;;;;;5111540;28;20382;-67
2021/11/17 03:00:12;;;;;;;3.08;2.10;;;2.00;99.90;;;;;;5114464;28;20023;-66
2021/11/17 03:02:49;;;;;;;2.60;1.92;;;2.00;99.90;;;;;;5114029;28;20038;-67
2021/11/17 03:05:51;;;;;;;2.55;1.88;;;2.10;99.90;;;;;;5113756;28;20026;-67
2021/11/17 03:08:35;;;;;;;2.47;1.77;;;2.10;99.90;;;;;;5070584;28;20021;-67
2021/11/17 03:11:18;;;;;;;2.40;1.73;;;2.20;99.90;;;;;;5110166;28;20040;-67
2021/11/17 03:13:56;;;;;;;2.10;1.67;;;2.20;99.90;;;;;;5113546;28;20483;-67
2021/11/17 03:17:00;;;;;;;2.50;1.65;;;2.20;99.90;;;;;;5105030;28;20074;-66
2021/11/17 03:19:49;;;;;;;2.72;1.60;;;2.30;99.90;;;;;;5084544;28;20035;-66
2021/11/17 03:22:24;;;;;;;2.53;2.00;;;2.30;99.90;;;;;;5093624;28;20028;-66
2021/11/17 03:24:50;;;;;;;5.93;2.60;;;2.30;99.90;;;;;;5113951;28;20027;-66
2021/11/17 03:27:27;;;;;;;3.05;2.38;;;2.30;99.90;;;;;;5113337;28;20530;-66
2021/11/17 03:30:35;;;;;;;4.22;2.33;;;2.30;99.90;;;;;;5112053;28;20475;-67
2021/11/17 03:33:27;;;;;;;4.13;2.70;;;2.40;99.90;;;;;;5112852;27;20456;-67
2021/11/17 03:36:20;;;;;;;3.58;2.50;;;2.40;99.90;;;;;;5113113;28;20016;-67
2021/11/17 03:38:48;;;;;;;3.90;2.17;;;2.40;99.90;;;;;;5113311;28;20039;-67
2021/11/17 03:41:48;;;;;;;5.38;2.75;;;2.50;99.90;;;;;;5112749;28;20031;-67
2021/11/17 03:44:50;;;;;;;9.40;3.25;;;2.50;99.90;;;;;;5113289;28;20019;-67
2021/11/17 03:47:22;;;;;;;7.95;3.17;;;2.60;99.90;;;;;;5081984;28;20032;-66
2021/11/17 03:50:12;;;;;;;6.28;3.35;;;2.60;99.90;;;;;;5103480;28;20372;-68
2021/11/17 03:53:02;;;;;;;9.25;4.20;;;2.60;99.90;;;;;;5113007;28;20029;-67
2021/11/17 03:55:41;;;;;;;7.72;3.60;;;2.60;99.90;;;;;;5112629;28;20074;-66
2021/11/17 03:58:15;;;;;;;10.40;4.32;;;2.60;99.90;;;;;;5112604;27;20034;-67
2021/11/17 04:01:10;;;;;;;14.20;4.22;;;2.60;99.90;;;;;;5099229;28;20029;-67
2021/11/17 04:03:45;;;;;;;11.93;4.60;;;2.70;99.90;;;;;;5112545;28;20023;-67
2021/11/17 04:06:29;;;;;;;13.50;4.78;;;2.70;99.90;;;;;;5112507;28;20458;-67
2021/11/17 04:09:13;;;;;;;21.42;4.75;;;2.70;99.90;;;;;;5112834;28;20046;-67
2021/11/17 04:11:54;;;;;;;10.32;4.32;;;2.70;99.90;;;;;;5113001;28;20149;-67
2021/11/17 04:14:35;;;;;;;12.40;4.82;;;2.70;99.90;;;;;;5099540;28;20375;-67
2021/11/17 04:17:07;;;;;;;10.20;4.70;;;2.80;99.90;;;;;;5112634;28;20023;-67
2021/11/17 04:19:48;;;;;;;14.18;4.63;;;2.80;99.90;;;;;;5112837;28;20085;-67
2021/11/17 04:22:24;;;;;;;9.65;4.90;;;2.80;99.90;;;;;;5112155;28;20119;-68
2021/11/17 04:25:01;;;;;;;12.77;5.18;;;2.80;99.90;;;;;;5112466;28;20417;-67
2021/11/17 04:27:52;;;;;;;10.40;4.95;;;2.80;99.90;;;;;;5097944;28;20487;-67
2021/11/17 04:30:47;;;;;;;10.35;4.95;;;2.80;99.90;;;;;;5111026;28;20505;-67
2021/11/17 04:33:14;;;;;;;13.98;5.80;;;2.80;99.90;;;;;;5099890;28;20027;-66
2021/11/17 04:35:55;;;;;;;9.10;4.65;;;2.80;99.90;;;;;;5098099;28;20059;-66
2021/11/17 04:38:36;;;;;;;;;;;2.80;99.90;;;;;;5100207;28;20037;-67
2021/11/17 04:41:37;;;;;;;9.57;4.45;;;2.90;99.90;;;;;;5110755;28;19911;-67
2021/11/17 04:44:29;;;;;;;6.93;4.50;;;2.80;99.90;;;;;;5111884;28;20032;-67
2021/11/17 04:47:32;;;;;;;9.10;5.03;;;2.80;99.90;;;;;;5086795;28;20201;-67
2021/11/17 04:50:26;;;;;;;8.40;4.50;;;2.90;99.90;;;;;;5097254;28;20479;-67
2021/11/17 04:53:01;;;;;;;7.90;4.93;;;2.90;99.90;;;;;;5112115;28;20030;-67
2021/11/17 04:55:34;;;;;;;8.02;4.93;;;2.90;99.90;;;;;;5104001;28;20101;-67
2021/11/17 04:58:25;;;;;;;8.07;4.57;;;3.00;99.90;;;;;;5106690;28;20386;-67
2021/11/17 05:00:51;;;;;;;8.65;4.03;;;3.00;99.90;;;;;;5110765;28;20034;-66
2021/11/17 05:03:29;;;;;;;5.95;4.45;;;3.00;99.90;;;;;;5111719;28;20122;-67
2021/11/17 05:06:07;;;;;;;5.75;4.15;;;3.00;99.90;;;;;;5111980;28;20503;-66
2021/11/17 05:08:38;;;;;;;6.32;3.85;;;3.00;99.90;;;;;;5112206;28;20031;-67
2021/11/17 05:11:07;;;;;;;6.97;4.03;;;3.00;99.90;;;;;;5111757;28;20027;-67
2021/11/17 05:13:35;;;;;;;6.40;4.32;;;3.00;99.90;;;;;;5110500;28;20111;-67
2021/11/17 05:16:13;;;;;;;9.50;4.40;;;3.00;99.90;;;;;;5101235;28;20021;-67
2021/11/17 05:18:59;;;;;;;6.22;3.83;;;3.00;99.90;;;;;;5091596;28;20028;-67
2021/11/17 05:21:37;;;;;;;11.35;4.18;;;3.10;99.90;;;;;;5103243;28;20476;-67
2021/11/17 05:24:12;;;;;;;7.38;3.95;;;3.10;99.90;;;;;;5091905;28;20029;-67
2021/11/17 05:26:53;;;;;;;7.53;3.97;;;3.10;99.90;;;;;;5103967;28;20031;-67
2021/11/17 05:29:19;;;;;;;6.32;3.90;;;3.10;99.90;;;;;;5110302;28;20462;-66
2021/11/17 05:32:09;;;;;;;6.88;4.07;;;3.20;99.90;;;;;;5111675;28;20043;-64
2021/11/17 05:34:56;;;;;;;7.07;3.73;;;3.20;99.90;;;;;;5099408;28;20104;-65
2021/11/17 05:37:37;;;;;;;5.97;4.00;;;3.20;99.90;;;;;;5108200;28;20271;-64
2021/11/17 05:40:38;;;;;;;;;;;3.20;99.90;;;;;;5102475;28;20024;-71
2021/11/17 05:43:37;;;;;;;5.25;2.88;;;4.30;99.90;;;;;;5048194;28;19935;-67
2021/11/17 05:46:21;;;;;;;6.63;2.80;;;5.60;99.90;;;;;;5095062;28;20026;-66
2021/11/17 05:48:58;;;;;;;4.18;2.80;;;5.00;99.90;;;;;;5097891;28;20518;-66
2021/11/17 05:51:27;;;;;;;4.70;3.33;;;4.50;99.90;;;;;;5093345;28;20274;-66
2021/11/17 05:54:20;;;;;;;5.78;2.90;;;4.10;99.90;;;;;;5094417;28;20084;-65
2021/11/17 05:57:27;;;;;;;4.50;3.17;;;3.90;99.90;;;;;;5094706;28;20040;-66
2021/11/17 06:00:13;;;;;;;6.72;3.72;;;3.80;99.90;;;;;;5096253;28;20462;-68
2021/11/17 06:02:57;;;;;;;5.80;3.50;;;3.70;99.90;;;;;;5103994;28;20112;-67
2021/11/17 06:05:23;;;;;;;8.88;3.35;;;3.70;99.90;;;;;;5102090;28;20015;-67
2021/11/17 06:07:48;;;;;;;5.00;3.25;;;3.70;99.90;;;;;;5097472;28;20043;-66
2021/11/17 06:10:31;;;;;;;5.20;3.30;;;3.70;99.90;;;;;;5106456;28;20019;-67
2021/11/17 06:12:58;;;;;;;5.07;3.47;;;3.60;99.90;;;;;;5100287;28;20474;-65
2021/11/17 06:15:25;;;;;;;6.40;3.45;;;3.60;99.90;;;;;;5101591;28;20026;-65
2021/11/17 06:17:54;;;;;;;6.30;3.45;;;3.60;99.90;;;;;;5107341;28;20502;-65
2021/11/17 06:20:21;;;;;;;9.38;3.55;;;3.60;99.90;;;;;;5097379;28;20032;-65
2021/11/17 06:22:50;;;;;;;8.18;3.97;;;3.60;99.90;;;;;;5095457;28;20070;-66
2021/11/17 06:25:17;;;;;;;5.00;3.23;;;3.60;99.90;;;;;;5096105;28;20460;-66
2021/11/17 06:27:47;;;;;;;7.40;3.03;;;3.60;99.90;;;;;;5109803;28;20095;-66
2021/11/17 06:30:16;;;;;;;6.03;3.53;;;3.60;99.90;;;;;;5109840;28;20051;-66
2021/11/17 06:32:42;;;;;;;6.15;2.85;;;3.70;99.90;;;;;;5105443;28;20159;-67
2021/11/17 06:35:10;;;;;;;5.85;3.28;;;3.60;99.90;;;;;;5109883;28;20102;-67
2021/11/17 06:37:36;;;;;;;10.50;3.53;;;3.70;99.90;;;;;;5114178;28;20062;-66
2021/11/17 06:40:05;;;;;;;6.72;3.78;;;3.60;99.90;;;;;;5114246;28;20080;-66
2021/11/17 06:42:35;;;;;;;7.20;3.67;;;3.70;99.90;;;;;;5114147;28;20398;-66
2021/11/17 06:45:11;;;;;;;5.50;2.85;;;3.70;99.90;;;;;;5114368;28;20043;-65
2021/11/17 06:47:37;;;;;;;5.97;3.13;;;3.70;99.90;;;;;;5113931;28;20020;-65
2021/11/17 06:50:03;;;;;;;5.03;3.53;;;3.70;99.90;;;;;;5113933;28;20030;-65
2021/11/17 06:52:29;;;;;;;7.60;3.63;;;3.70;99.90;;;;;;5113654;28;20030;-65
2021/11/17 06:54:54;;;;;;;7.15;4.05;;;3.70;99.90;;;;;;5113799;28;20047;-66
2021/11/17 06:57:20;;;;;;;5.35;3.05;;;3.70;99.90;;;;;;5103234;28;20077;-65
2021/11/17 06:59:47;;;;;;;5.40;3.50;;;3.70;99.90;;;;;;5109398;28;20035;-65
2021/11/17 07:02:13;;;;;;;7.95;3.80;;;3.70;99.90;;;;;;5112480;28;20261;-65
2021/11/17 07:04:39;;;;;;;4.15;3.30;;;3.90;99.90;;;;;;5114105;28;20094;-64
2021/11/17 07:07:08;;;;;;;6.63;3.92;;;4.00;99.90;;;;;;5107965;27;20031;-68
2021/11/17 07:09:34;;;;;;;8.50;3.80;;;3.90;99.90;;;;;;5105666;28;20121;-70
2021/11/17 07:12:00;;;;;;;6.22;3.60;;;3.90;99.90;;;;;;5109287;28;20067;-65
2021/11/17 07:14:26;;;;;;;7.20;3.50;;;3.90;99.90;;;;;;5093224;28;20031;-71
2021/11/17 07:16:53;;;;;;;7.97;3.35;;;3.90;99.90;;;;;;5097526;28;20424;-70
2021/11/17 07:19:24;;;;;;;4.97;3.53;;;3.90;99.90;;;;;;5104017;28;20500;-70
2021/11/17 07:21:55;;;;;;;6.57;3.80;;;3.90;99.90;;;;;;5113171;28;20035;-70
2021/11/17 07:24:21;;;;;;;5.88;3.40;;;3.90;99.90;;;;;;5104159;28;20016;-70
2021/11/17 07:26:47;;;;;;;3.92;3.08;;;3.90;99.90;;;;;;5101398;28;20035;-70
2021/11/17 07:29:13;;;;;;;7.63;3.67;;;3.90;99.90;;;;;;5112990;28;20022;-70
2021/11/17 07:31:39;;;;;;;6.28;3.42;;;3.90;99.90;;;;;;5112960;28;20543;-70
2021/11/17 07:34:05;;;;;;;6.47;3.85;;;3.90;99.90;;;;;;5112896;28;20168;-70
2021/11/17 07:36:31;;;;;;;9.70;3.50;;;4.00;99.90;;;;;;5113093;28;20110;-70
2021/11/17 07:38:57;;;;;;;6.88;3.35;;;4.00;99.90;;;;;;5112709;28;20403;-69
2021/11/17 07:41:22;;;;;;;4.47;3.35;;;4.00;99.90;;;;;;5112626;28;20043;-70
2021/11/17 07:43:48;;;;;;;13.52;4.03;;;4.00;99.90;;;;;;5111786;28;20475;-70
2021/11/17 07:46:14;;;;;;;6.55;3.45;;;4.10;99.90;;;;;;5099416;28;20506;-70
2021/11/17 07:48:40;;;;;;;7.55;4.03;;;4.10;99.90;;;;;;5112810;28;20019;-69
2021/11/17 07:51:05;;;;;;;9.50;4.45;;;4.10;99.90;;;;;;5112597;28;20400;-69
2021/11/17 07:53:33;;;;;;;9.10;3.60;;;4.20;99.90;;;;;;5112341;28;20022;-70
2021/11/17 07:56:01;;;;;;;6.90;4.13;;;4.20;99.90;;;;;;5111042;28;20047;-69
2021/11/17 07:58:31;;;;;;;11.75;3.95;;;4.20;99.90;;;;;;5111689;28;20030;-70
2021/11/17 08:00:58;;;;;;;9.43;4.32;;;4.30;99.90;;;;;;5111786;28;20043;-69
2021/11/17 08:03:28;;;;;;;11.77;4.15;;;4.30;99.90;;;;;;5111571;28;20490;-71
2021/11/17 08:05:55;;;;;;;13.80;3.85;;;4.30;99.90;;;;;;5097401;28;20032;-70
2021/11/17 08:08:22;;;;;;;6.68;3.70;;;4.40;99.90;;;;;;5106512;28;20555;-71
2021/11/17 08:10:49;;;;;;;6.53;3.70;;;4.70;99.90;;;;;;5112359;28;20031;-69
2021/11/17 08:13:15;;;;;;;5.38;3.65;;;5.00;99.90;;;;;;5108340;28;20600;-70
2021/11/17 08:15:41;;;;;;;8.18;3.58;;;5.10;99.90;;;;;;5091956;28;20510;-70
2021/11/17 08:18:08;;;;;;;5.88;3.33;;;5.10;99.90;;;;;;5090408;28;20124;-70
2021/11/17 08:20:34;;;;;;;7.60;3.67;;;5.00;99.90;;;;;;5098034;28;20053;-69
2021/11/17 08:23:00;;;;;;;6.90;3.88;;;5.00;99.90;;;;;;5094866;28;20357;-70
2021/11/17 08:25:30;;;;;;;8.77;4.18;;;4.90;99.90;;;;;;5097921;28;20585;-70
2021/11/17 08:27:56;;;;;;;7.15;3.42;;;4.90;99.90;;;;;;5112345;28;20061;-69
2021/11/17 08:30:25;;;;;;;5.38;3.40;;;4.90;99.90;;;;;;5105338;28;20444;-70
2021/11/17 08:32:51;;;;;;;7.15;3.60;;;4.90;99.90;;;;;;5097237;28;20081;-69
2021/11/17 08:35:21;;;;;;;13.82;3.53;;;4.90;99.90;;;;;;5094675;28;20027;-69
2021/11/17 08:37:49;;;;;;;7.90;3.75;;;4.90;99.90;;;;;;5099871;28;20511;-70
2021/11/17 08:40:19;;;;;;;9.13;3.33;;;4.90;99.90;;;;;;5104688;28;20024;-69
2021/11/17 08:42:45;;;;;;;9.40;3.70;;;4.90;99.90;;;;;;5112063;28;20035;-70
2021/11/17 08:45:13;;;;;;;7.57;3.15;;;4.90;99.90;;;;;;5112276;28;20047;-70
2021/11/17 08:47:41;;;;;;;8.38;3.80;;;5.00;99.90;;;;;;5111902;28;20061;-69
2021/11/17 08:50:09;;;;;;;9.55;3.42;;;5.00;99.90;;;;;;5111942;28;20023;-69
2021/11/17 08:52:35;;;;;;;6.57;3.13;;;6.00;99.90;;;;;;5111480;27;20026;-69
2021/11/17 08:55:01;;;;;;;8.15;3.05;;;6.50;99.90;;;;;;5111546;28;20115;-69
2021/11/17 08:57:26;;;;;;;7.95;3.25;;;6.10;99.90;;;;;;5110261;28;20028;-69
2021/11/17 08:59:53;;;;;;;4.78;3.03;;;5.80;99.90;;;;;;5111961;28;20063;-69
2021/11/17 09:02:20;;;;;;;6.55;3.13;;;5.70;99.90;;;;;;5111499;28;20077;-69
2021/11/17 09:04:46;;;;;;;13.50;3.47;;;5.50;99.90;;;;;;5111467;28;20417;-70
2021/11/17 09:07:13;;;;;;;8.48;3.38;;;5.40;99.90;;;;;;5098215;28;20019;-69
2021/11/17 09:09:40;;;;;;;5.13;2.95;;;5.40;99.90;;;;;;5112084;28;20102;-69
2021/11/17 09:12:08;;;;;;;7.38;3.42;;;5.40;99.90;;;;;;5106715;28;20487;-69
2021/11/17 09:14:34;;;;;;;5.38;3.60;;;5.30;99.90;;;;;;5091321;28;20024;-69
2021/11/17 09:17:01;;;;;;;8.55;3.15;;;5.30;99.90;;;;;;5094333;28;20020;-69
2021/11/17 09:19:26;;;;;;;9.00;3.45;;;5.30;99.90;;;;;;5111526;28;20112;-69
2021/11/17 09:21:53;;;;;;;6.88;3.05;;;5.30;99.90;;;;;;5111485;28;20122;-70
2021/11/17 09:24:21;;;;;;;9.05;3.13;;;5.30;99.90;;;;;;5111327;28;20058;-69
2021/11/17 09:26:50;;;;;;;5.35;3.13;;;5.30;99.90;;;;;;5111782;28;20114;-68
2021/11/17 09:29:16;;;;;;;9.20;3.67;;;5.30;99.90;;;;;;5111835;28;20203;-66
2021/11/17 09:31:45;;;;;;;8.43;3.65;;;5.30;99.90;;;;;;5111625;28;20114;-66
2021/11/17 09:34:12;;;;;;;4.90;3.15;;;5.40;99.90;;;;;;5112694;28;20349;-65
2021/11/17 09:36:38;;;;;;;6.35;3.00;;;5.30;99.90;;;;;;5115419;28;20024;-65
2021/11/17 09:39:09;;;;;;;5.18;2.53;;;5.40;99.90;;;;;;5115462;28;20023;-65
2021/11/17 09:41:47;;;;;;;3.22;2.17;;;5.40;99.90;;;;;;5115399;28;20035;-69
2021/11/17 09:44:24;;;;;;;3.70;2.10;;;5.80;99.90;;;;;;5115450;28;20592;-66
2021/11/17 09:46:52;;;;;;;5.28;2.22;;;7.20;99.90;;;;;;5115806;28;20054;-66
2021/11/17 09:49:36;;;;;;;10.73;3.90;;;6.90;99.90;;;;;;5115307;28;20360;-66
2021/11/17 09:52:09;;;;;;;6.90;2.60;;;6.50;99.90;;;;;;5115468;28;20041;-66
2021/11/17 09:54:41;;;;;;;4.03;2.28;;;6.20;99.90;;;;;;5115160;28;20105;-66
2021/11/17 09:57:26;;;;;;;5.40;2.50;;;6.00;99.90;;;;;;5115266;28;20032;-66
2021/11/17 09:59:56;;;;;;;6.45;1.90;;;5.90;99.90;;;;;;5115366;28;20031;-66
2021/11/17 10:02:27;;;;;;;5.15;2.30;;;6.50;99.90;;;;;;5106017;27;20047;-66
2021/11/17 10:05:10;;;;;;;3.35;1.88;;;7.00;99.90;;;;;;5096761;28;20027;-67
2021/11/17 10:14:01;;;;;;;6.95;1.90;;;6.20;99.90;;;;;;5100624;28;20391;-66
2021/11/17 10:16:27;;;;;;;5.43;1.75;;;6.00;99.90;;;;;;5106568;28;20020;-65
2021/11/17 10:19:15;;;;;;;4.22;1.70;;;5.90;99.90;;;;;;5114341;28;20114;-66
2021/11/17 10:21:42;;;;;;;3.90;2.25;;;5.90;99.90;;;;;;5114186;28;20088;-66
2021/11/17 10:24:18;;;;;;;5.38;1.70;;;5.90;99.90;;;;;;5114036;28;20110;-66
2021/11/17 10:26:51;;;;;;;4.35;1.50;;;5.80;99.90;;;;;;5114029;28;20102;-66
2021/11/17 10:29:34;;;;;;;1.90;1.23;;;5.80;99.90;;;;;;5112907;28;20027;-67
2021/11/17 10:32:05;;;;;;;2.65;1.40;;;5.80;99.90;;;;;;5114587;28;20046;-67
2021/11/17 10:34:39;;;;;;;4.90;1.52;;;5.80;99.90;;;;;;5100903;28;20019;-66
2021/11/17 10:37:08;;;;;;;7.90;1.25;;;5.80;99.90;;;;;;5095593;28;20020;-66
2021/11/17 10:39:39;;;;;;;4.00;1.63;;;5.80;99.90;;;;;;5113455;28;20020;-66
2021/11/17 10:42:20;;;;;;;1.77;1.20;;;5.80;99.90;;;;;;5113496;28;20046;-66
2021/11/17 10:44:51;;;;;;;6.60;0.93;;;5.80;99.90;;;;;;5110715;28;20028;-66
2021/11/17 10:47:23;;;;;;;1.67;1.30;;;5.80;99.90;;;;;;5098758;28;20028;-66
2021/11/17 10:49:57;;;;;;;5.20;1.23;;;5.80;99.90;;;;;;5113062;28;20020;-66
2021/11/17 10:52:41;;;;;;;1.25;0.90;;;5.80;99.90;;;;;;5113428;28;20378;-66
2021/11/17 10:55:20;;;;;;;9.88;1.10;;;5.80;99.90;;;;;;5112834;28;20179;-66
2021/11/17 10:57:46;;;;;;;3.08;1.00;;;5.80;99.90;;;;;;5114028;28;20019;-67
2021/11/17 11:00:15;;;;;;;4.88;1.00;;;5.80;99.90;;;;;;5094489;28;20380;-66
2021/11/17 11:02:42;;;;;;;4.00;0.93;;;5.80;99.90;;;;;;5093321;28;20078;-66
2021/11/17 11:05:25;;;;;;;1.65;0.90;;;5.80;99.90;;;;;;5093493;28;20027;-65
2021/11/17 11:08:24;;;;;;;5.75;1.00;;;5.80;99.90;;;;;;5093579;28;20030;-64
2021/11/17 11:10:53;;;;;;;0.73;0.73;;;5.80;99.90;;;;;;5101825;28;20028;-64
2021/11/17 11:13:31;;;;;;;0.85;0.80;;;5.80;99.90;;;;;;5113420;28;20433;-64
2021/11/17 11:16:01;;;;;;;6.15;0.90;;;5.80;99.90;;;;;;5112497;28;20423;-65
2021/11/17 11:18:35;;;;;;;1.27;1.00;;;5.80;99.90;;;;;;5112053;28;20099;-63
2021/11/17 11:21:01;;;;;;;4.40;0.95;;;5.80;99.90;;;;;;5113349;28;20028;-63
2021/11/17 11:23:36;;;;;;;2.10;0.90;;;5.80;99.90;;;;;;5113135;28;20032;-64
2021/11/17 11:26:15;;;;;;;2.85;0.70;;;5.80;99.90;;;;;;5113466;28;20076;-63
2021/11/17 11:28:47;;;;;;;3.15;0.98;;;5.80;99.90;;;;;;5112111;28;20031;-63
2021/11/17 11:31:13;;;;;;;2.10;0.90;;;5.80;99.90;;;;;;5112117;28;20063;-64
2021/11/17 11:33:49;;;;;;;2.25;0.80;;;5.80;99.90;;;;;;5111722;28;20140;-64
2021/11/17 11:36:15;;;;;;;3.58;0.90;;;5.80;99.90;;;;;;5112122;28;20488;-64
2021/11/17 11:39:03;;;;;;;4.53;0.95;;;5.80;99.90;;;;;;5101820;28;20032;-64
2021/11/17 11:41:29;;;;;;;6.13;0.93;;;5.80;99.90;;;;;;5084184;28;20048;-64
2021/11/17 11:44:16;;;;;;;0.82;0.82;;;5.80;99.90;;;;;;5107303;28;20015;-64
2021/11/17 11:46:50;;;;;;;4.32;1.00;;;5.80;99.90;;;;;;5112552;28;20023;-64
2021/11/17 11:49:41;;;;;;;3.75;0.80;;;5.90;99.90;;;;;;5113200;28;20141;-65
2021/11/17 11:52:33;;;;;;;2.22;0.80;;;5.80;99.90;;;;;;5101164;28;20024;-64
2021/11/17 11:55:02;;;;;;;1.02;0.73;;;5.80;99.90;;;;;;5110665;28;20394;-64
2021/11/17 11:57:52;;;;;;;1.25;0.80;;;5.80;99.90;;;;;;5103081;28;20028;-64
2021/11/17 12:00:23;;;;;;;3.33;0.80;;;5.80;99.90;;;;;;5097216;28;20020;-64
2021/11/17 12:02:57;;;;;;;3.60;1.00;;;5.80;99.90;;;;;;5101396;28;20043;-64
2021/11/17 12:05:35;;;;;;;1.27;0.63;;;5.80;99.90;;;;;;5098196;28;20028;-64
2021/11/17 12:08:21;;;;;;;6.88;0.80;;;5.70;99.90;;;;;;5102404;28;20038;-64
2021/11/17 12:11:16;;;;;;;1.55;0.90;;;5.70;99.90;;;;;;5104622;28;20084;-64
2021/11/17 12:13:59;;;;;;;0.68;0.68;;;5.80;99.90;;;;;;5108143;28;20548;-64
2021/11/17 12:16:40;;;;;;;1.38;0.77;;;5.80;99.90;;;;;;5112120;28;20023;-64
2021/11/17 12:19:26;;;;;;;2.80;0.88;;;5.70;99.90;;;;;;5100478;28;20402;-64
2021/11/17 12:22:01;;;;;;;4.97;1.10;;;5.70;99.90;;;;;;5112092;27;20487;-66
2021/11/17 12:24:31;;;;;;;0.98;0.80;;;5.70;99.90;;;;;;5112125;28;20023;-64
2021/11/17 12:27:12;;;;;;;2.88;0.60;;;7.40;99.90;;;;;;5112176;28;20055;-64
2021/11/17 12:29:49;;;;;;;2.63;0.93;;;7.40;99.90;;;;;;5112254;28;20024;-64
2021/11/17 12:32:27;;;;;;;1.90;0.70;;;7.00;99.90;;;;;;5111295;28;20422;-64
2021/11/17 12:35:01;;;;;;;0.75;0.60;;;6.60;99.90;;;;;;5112136;28;20533;-64
2021/11/17 12:37:39;;;;;;;1.92;0.65;;;6.30;99.90;;;;;;5112258;28;20065;-64
2021/11/17 12:40:38;;;;;;;1.90;1.00;;;6.20;99.90;;;;;;5110854;28;20387;-64
2021/11/17 12:43:12;;;;;;;1.20;0.77;;;6.10;99.90;;;;;;5112182;28;20453;-64
2021/11/17 12:46:00;;;;;;;0.60;0.50;;;6.00;99.90;;;;;;5111761;28;20051;-64
2021/11/17 12:48:34;;;;;;;0.90;0.65;;;6.00;99.90;;;;;;5112078;28;20045;-64
2021/11/17 12:51:08;;;;;;;1.60;0.70;;;5.90;99.90;;;;;;5109496;28;20039;-64
2021/11/17 12:53:56;;;;;;;4.47;1.33;;;5.90;99.90;;;;;;5094869;28;20089;-64
2021/11/17 12:56:41;;;;;;;0.95;0.63;;;5.90;99.90;;;;;;5090161;28;20052;-64
2021/11/17 12:59:12;;;;;;;1.67;0.75;;;7.20;99.90;;;;;;5101155;28;20023;-64
2021/11/17 13:01:42;;;;;;;1.88;0.70;;;7.10;99.90;;;;;;5111128;28;20039;-64
2021/11/17 13:04:25;;;;;;;1.92;0.85;;;6.80;99.90;;;;;;5106600;28;20452;-64
2021/11/17 13:06:58;;;;;;;2.35;0.70;;;6.50;99.90;;;;;;5109052;28;20038;-64
2021/11/17 13:09:47;;;;;;;3.00;0.80;;;6.30;99.90;;;;;;5113298;28;20022;-64
2021/11/17 13:12:28;;;;;;;4.95;1.27;;;6.20;99.90;;;;;;5107860;28;20042;-64
2021/11/17 13:15:07;;;;;;;3.88;0.80;;;6.10;99.90;;;;;;5109417;28;20580;-64
2021/11/17 13:17:33;;;;;;;3.25;0.68;;;6.00;99.90;;;;;;5103228;28;20119;-65
2021/11/17 13:20:14;;;;;;;2.08;0.90;;;6.00;99.90;;;;;;5095596;28;20107;-64
2021/11/17 13:22:46;;;;;;;1.92;0.75;;;5.90;99.90;;;;;;5103003;28;20106;-64
2021/11/17 13:25:20;;;;;;;2.20;0.60;;;5.90;99.90;;;;;;5115448;28;20027;-64
2021/11/17 13:27:54;;;;;;;1.27;0.70;;;5.90;99.90;;;;;;5115569;28;20024;-65
2021/11/17 13:30:45;;;;;;;2.53;0.70;;;5.80;99.90;;;;;;5115572;28;20019;-65
2021/11/17 13:33:21;;;;;;;1.50;0.88;;;5.90;99.90;;;;;;5115485;28;20395;-64
2021/11/17 13:35:57;;;;;;;2.42;0.80;;;5.80;99.90;;;;;;5110857;28;20034;-65
2021/11/17 13:38:24;;;;;;;2.83;0.68;;;5.80;99.90;;;;;;5106760;28;20027;-64
2021/11/17 13:40:57;;;;;;;1.77;0.80;;;5.80;99.90;;;;;;5108950;28;20098;-65
2021/11/17 13:43:24;;;;;;;2.65;0.85;;;5.80;99.90;;;;;;5115476;28;20036;-65
2021/11/17 13:45:52;;;;;;;2.55;0.80;;;5.80;99.90;;;;;;5115115;28;20031;-65
2021/11/17 13:48:21;;;;;;;2.13;0.90;;;5.70;99.90;;;;;;5115348;28;20023;-64
2021/11/17 13:50:49;;;;;;;1.48;0.77;;;5.70;99.90;;;;;;5114955;28;20028;-64
2021/11/17 13:53:18;;;;;;;1.40;0.80;;;5.70;99.90;;;;;;5111517;28;20024;-64
2021/11/17 13:55:55;;;;;;;0.60;0.60;;;5.70;99.90;;;;;;5094470;28;20047;-64
2021/11/17 13:58:21;;;;;;;1.55;0.98;;;5.70;99.90;;;;;;5098243;28;20027;-64
2021/11/17 14:00:47;;;;;;;1.30;0.90;;;5.70;99.90;;;;;;5114936;28;20030;-64
2021/11/17 14:03:13;;;;;;;0.80;0.80;;;5.70;99.90;;;;;;5114903;28;20027;-64
2021/11/17 14:05:41;;;;;;;0.77;0.70;;;5.70;99.90;;;;;;5112608;28;20479;-64
2021/11/17 14:08:10;;;;;;;1.40;1.00;;;5.70;99.90;;;;;;5111832;28;20092;-65
2021/11/17 14:10:37;;;;;;;1.10;0.80;;;5.70;99.90;;;;;;5101169;28;20016;-65
2021/11/17 14:13:04;;;;;;;0.90;0.63;;;5.70;99.90;;;;;;5104529;28;20031;-64
2021/11/17 14:15:30;;;;;;;2.53;0.93;;;5.70;99.90;;;;;;5102042;28;20020;-64
2021/11/17 14:17:56;;;;;;;1.27;0.85;;;5.70;99.90;;;;;;5105321;28;20039;-64
2021/11/17 14:20:23;;;;;;;2.95;0.85;;;5.70;99.90;;;;;;5113490;28;20035;-64
2021/11/17 14:22:49;;;;;;;1.08;0.65;;;5.70;99.90;;;;;;5095829;28;20040;-64
2021/11/17 14:25:18;;;;;;;1.38;0.60;;;5.60;99.90;;;;;;5106504;28;20024;-64
2021/11/17 14:27:54;;;;;;;1.00;0.80;;;5.70;99.90;;;;;;5113989;28;20023;-64
2021/11/17 14:30:33;;;;;;;1.13;0.93;;;5.70;99.90;;;;;;5109113;28;20051;-64
2021/11/17 14:32:59;;;;;;;0.90;0.68;;;5.70;99.90;;;;;;5107643;28;20415;-64
2021/11/17 14:35:27;;;;;;;1.42;0.68;;;5.60;99.90;;;;;;5114177;28;20022;-64
2021/11/17 14:37:54;;;;;;;2.17;1.10;;;5.60;99.90;;;;;;5114132;28;20027;-64
2021/11/17 14:40:21;;;;;;;4.13;0.80;;;5.60;99.90;;;;;;5114127;28;20024;-64
2021/11/17 14:42:48;;;;;;;1.23;0.77;;;5.60;99.90;;;;;;5114345;28;20031;-65
2021/11/17 14:45:18;;;;;;;3.38;0.90;;;5.60;99.90;;;;;;5107910;28;20016;-64
2021/11/17 14:47:44;;;;;;;2.13;0.90;;;5.60;99.90;;;;;;5114399;28;20023;-64
2021/11/17 14:50:12;;;;;;;2.70;0.80;;;5.60;99.90;;;;;;5114257;28;20027;-64
2021/11/17 14:52:39;;;;;;;1.00;0.80;;;5.60;99.90;;;;;;5111669;28;20016;-64
2021/11/17 14:55:07;;;;;;;0.93;0.70;;;5.50;99.90;;;;;;5093186;28;20487;-64
2021/11/17 14:57:36;;;;;;;5.85;1.15;;;5.60;99.90;;;;;;5104756;28;20027;-64
2021/11/17 15:00:06;;;;;;;2.13;0.73;;;5.60;99.90;;;;;;5113529;28;20039;-64
2021/11/17 15:02:31;;;;;;;3.33;1.10;;;5.60;99.90;;;;;;5113808;28;20035;-65
2021/11/17 15:04:57;;;;;;;2.60;0.95;;;5.60;99.90;;;;;;5113528;28;20039;-65
2021/11/17 15:07:23;;;;;;;3.35;0.63;;;5.60;99.90;;;;;;5098445;28;20032;-64
2021/11/17 15:09:48;;;;;;;3.22;0.90;;;5.50;99.90;;;;;;5108541;28;20026;-64
2021/11/17 15:12:18;;;;;;;1.48;0.80;;;5.60;99.90;;;;;;5101481;28;20028;-64
2021/11/17 15:14:45;;;;;;;0.80;0.67;;;5.60;99.90;;;;;;5096925;28;20468;-64
2021/11/17 15:17:11;;;;;;;2.83;1.20;;;5.60;99.90;;;;;;5095532;28;20027;-64
2021/11/17 15:19:38;;;;;;;6.95;0.90;;;5.60;99.90;;;;;;5098690;28;20020;-64
2021/11/17 15:22:04;;;;;;;1.15;0.90;;;5.60;99.90;;;;;;5098175;28;20063;-64
2021/11/17 15:24:32;;;;;;;7.22;1.00;;;5.50;99.90;;;;;;5097790;28;20016;-64
2021/11/17 15:27:09;;;;;;;6.25;1.00;;;5.50;99.90;;;;;;5102321;28;20032;-64
2021/11/17 15:29:37;;;;;;;2.05;1.48;;;5.60;99.90;;;;;;5092818;28;20427;-64
2021/11/17 15:32:03;;;;;;;1.17;0.93;;;5.50;99.90;;;;;;5097115;28;20047;-64
2021/11/17 15:34:29;;;;;;;4.70;0.73;;;5.60;99.90;;;;;;5095994;28;20035;-64
2021/11/17 15:36:55;;;;;;;1.50;0.90;;;5.60;99.90;;;;;;5092930;28;20332;-65
2021/11/17 15:39:21;;;;;;;2.17;0.80;;;5.50;99.90;;;;;;5097057;28;20038;-64
2021/11/17 15:41:46;;;;;;;5.38;1.42;;;5.60;99.90;;;;;;5093368;28;20036;-65
2021/11/17 15:44:13;;;;;;;1.85;1.00;;;5.60;99.90;;;;;;5093401;28;20442;-65
2021/11/17 15:46:51;;;;;;;2.67;1.05;;;5.60;99.90;;;;;;5096650;28;20099;-64
2021/11/17 15:49:17;;;;;;;1.20;1.00;;;5.60;99.90;;;;;;5096169;28;20016;-64
2021/11/17 15:51:47;;;;;;;1.38;0.82;;;5.60;99.90;;;;;;5095495;28;20035;-64
2021/11/17 15:54:13;;;;;;;1.58;0.95;;;5.60;99.90;;;;;;5094327;28;20024;-64
2021/11/17 15:56:40;;;;;;;1.45;1.02;;;5.60;99.90;;;;;;5093335;28;20097;-64
2021/11/17 15:59:06;;;;;;;2.20;1.20;;;5.60;99.90;;;;;;5095429;28;20107;-64
2021/11/17 16:01:32;;;;;;;1.23;0.93;;;5.60;99.90;;;;;;5092929;28;20115;-64
2021/11/17 16:03:58;;;;;;;3.30;0.85;;;5.60;99.90;;;;;;5094740;28;20020;-64
2021/11/17 16:06:28;;;;;;;1.45;0.93;;;5.60;99.90;;;;;;5097400;28;20028;-64
2021/11/17 16:08:54;;;;;;;;;;;5.60;99.90;;;;;;5093085;28;20031;-61
2021/11/17 16:11:20;;;;;;;2.83;1.27;;;5.60;99.90;;;;;;5094758;28;19904;-61
2021/11/17 16:13:47;;;;;;;3.55;1.40;;;5.60;99.90;;;;;;5094257;28;20502;-62
2021/11/17 16:16:13;;;;;;;3.85;1.25;;;5.60;99.90;;;;;;5092681;28;20236;-62
2021/11/17 16:18:39;;;;;;;1.15;1.00;;;5.60;99.90;;;;;;5094446;28;20494;-63
2021/11/17 16:21:07;;;;;;;1.60;1.10;;;5.60;99.90;;;;;;5112772;28;20032;-63
2021/11/17 16:26:20;;;;;;;1.60;1.20;;;5.60;99.90;;;;;;5101767;28;20104;-63
2021/11/17 16:28:50;;;;;;;1.35;1.25;;;5.60;99.90;;;;;;5110167;28;20035;-62
2021/11/17 16:31:19;;;;;;;1.60;1.20;;;5.50;99.90;;;;;;5094259;28;20390;-63
2021/11/17 16:33:45;;;;;;;2.42;1.33;;;5.50;99.90;;;;;;5107092;28;20131;-63